Time;durP1;ratioP1;P1;durP2;ratioP2;P2;SDS_P1;SDS_P2;PMS_P1;PMS_P2;Temp;Humidity;BMP_temperature;BMP_pressure;BME280_temperature;BME280_humidity;BME280_pressure;Samples;Min_cycle;Max_cycle;Signal;HPM_P1;HPM_P2
2021/12/03 00:00:45;;;;;;;24.57;17.27;;;4.50;99.90;;;;;;4891329;29;20469;-86
2021/12/03 00:03:12;;;;;;;23.07;17.90;;;4.60;99.90;;;;;;4889957;29;20494;-86
2021/12/03 00:05:40;;;;;;;27.47;17.30;;;4.60;99.90;;;;;;4888470;29;20476;-86
2021/12/03 00:08:19;;;;;;;22.77;16.80;;;4.50;99.90;;;;;;4905382;29;20984;-87
2021/12/03 00:10:54;;;;;;;21.53;16.47;;;4.40;99.90;;;;;;4892673;29;20721;-86
2021/12/03 00:13:21;;;;;;;26.17;18.27;;;4.50;99.90;;;;;;4893078;29;20501;-86
2021/12/03 00:15:48;;;;;;;25.20;18.43;;;4.70;99.90;;;;;;4885637;29;20460;-84
2021/12/03 00:18:15;;;;;;;24.30;17.40;;;4.70;99.90;;;;;;4904933;29;20469;-85
2021/12/03 00:20:42;;;;;;;26.70;18.03;;;4.70;99.90;;;;;;4889085;29;20474;-86
2021/12/03 00:23:09;;;;;;;23.57;18.33;;;4.60;99.90;;;;;;4888248;29;20572;-87
2021/12/03 00:25:36;;;;;;;26.27;18.50;;;4.60;99.90;;;;;;4888907;29;20472;-84
2021/12/03 00:28:04;;;;;;;26.17;18.10;;;4.60;99.90;;;;;;4889336;29;20470;-87
2021/12/03 00:30:33;;;;;;;28.90;19.80;;;4.60;99.90;;;;;;4894109;29;20454;-86
2021/12/03 00:33:00;;;;;;;27.70;19.03;;;4.50;99.90;;;;;;4910459;29;20523;-88
2021/12/03 00:35:27;;;;;;;27.03;19.73;;;4.50;99.90;;;;;;4894762;29;20465;-87
2021/12/03 00:37:54;;;;;;;31.70;20.03;;;4.40;99.90;;;;;;4893524;29;20532;-86
2021/12/03 00:40:25;;;;;;;32.03;19.67;;;4.50;99.90;;;;;;4909425;29;20469;-88
2021/12/03 00:42:52;;;;;;;28.83;17.90;;;4.50;99.90;;;;;;4889513;29;20573;-85
2021/12/03 00:45:20;;;;;;;24.43;17.73;;;4.50;99.90;;;;;;4891736;29;20479;-87
2021/12/03 00:47:48;;;;;;;30.40;19.17;;;4.50;99.90;;;;;;4891717;29;20455;-84
2021/12/03 00:50:19;;;;;;;30.10;20.70;;;4.50;99.90;;;;;;4909996;29;20464;-85
2021/12/03 00:52:47;;;;;;;25.70;18.20;;;4.30;99.90;;;;;;4920400;29;20494;-87
2021/12/03 00:55:15;;;;;;;24.50;18.47;;;4.30;99.90;;;;;;4913574;29;20468;-86
2021/12/03 00:57:44;;;;;;;25.43;19.77;;;4.30;99.90;;;;;;4893852;29;20465;-86
2021/12/03 01:00:15;;;;;;;27.90;18.93;;;4.20;99.90;;;;;;4894322;29;20465;-87
2021/12/03 01:02:42;;;;;;;23.90;17.93;;;4.10;99.90;;;;;;4888144;29;20493;-86
2021/12/03 01:05:10;;;;;;;25.23;16.70;;;4.10;99.90;;;;;;4892247;29;20499;-86
2021/12/03 01:07:37;;;;;;;24.03;17.87;;;4.40;99.90;;;;;;4887830;29;21003;-85
2021/12/03 01:10:05;;;;;;;24.10;17.97;;;4.50;99.90;;;;;;4896029;29;20459;-86
2021/12/03 01:12:32;;;;;;;27.10;19.07;;;4.60;99.90;;;;;;4908734;29;20585;-85
2021/12/03 01:14:59;;;;;;;25.67;18.40;;;4.60;99.90;;;;;;4895034;29;20456;-88
2021/12/03 01:17:26;;;;;;;27.60;19.10;;;4.60;99.90;;;;;;4892835;29;20495;-87
2021/12/03 01:19:53;;;;;;;27.73;20.57;;;4.50;99.90;;;;;;4904945;29;20970;-86
2021/12/03 01:22:20;;;;;;;25.07;18.83;;;4.50;99.90;;;;;;4907512;29;20655;-86
2021/12/03 01:24:51;;;;;;;25.17;19.03;;;4.60;99.90;;;;;;4906653;29;20460;-85
2021/12/03 01:27:18;;;;;;;28.17;18.37;;;4.60;99.90;;;;;;4909861;29;20463;-85
2021/12/03 01:29:45;;;;;;;26.23;18.97;;;4.60;99.90;;;;;;4900740;29;20453;-86
2021/12/03 01:32:12;;;;;;;25.20;17.37;;;4.70;99.90;;;;;;4912838;29;20600;-85
2021/12/03 01:34:39;;;;;;;27.47;18.83;;;4.60;99.90;;;;;;4905280;28;20457;-86
2021/12/03 01:37:10;;;;;;;27.60;18.60;;;4.60;99.90;;;;;;4907725;29;20568;-85
2021/12/03 01:43:23;;;;;;;25.70;17.27;;;4.50;99.90;;;;;;4879503;29;20993;-87
2021/12/03 01:45:57;;;;;;;22.53;17.03;;;4.40;99.90;;;;;;4843334;29;21827;-87
2021/12/03 01:48:25;;;;;;;24.90;17.60;;;4.50;99.90;;;;;;4836606;29;21192;-87
2021/12/03 01:50:52;;;;;;;28.40;18.50;;;4.50;99.90;;;;;;4840004;29;20529;-85
2021/12/03 01:53:24;;;;;;;26.43;17.60;;;4.50;99.90;;;;;;4866367;29;21026;-86
2021/12/03 01:55:53;;;;;;;25.53;17.23;;;4.60;99.90;;;;;;4865926;29;21766;-86
2021/12/03 01:58:21;;;;;;;24.40;16.90;;;4.50;99.90;;;;;;4849073;29;20662;-86
2021/12/03 02:01:00;;;;;;;25.90;18.17;;;4.60;99.90;;;;;;4856752;29;20463;-87
2021/12/03 02:03:32;;;;;;;24.07;16.87;;;4.50;99.90;;;;;;4848582;29;20687;-87
2021/12/03 02:06:01;;;;;;;28.80;17.60;;;4.50;99.90;;;;;;4839000;29;20905;-84
2021/12/03 02:08:31;;;;;;;27.73;18.20;;;4.40;99.90;;;;;;4879499;29;20528;-86
2021/12/03 02:11:06;;;;;;;22.07;17.53;;;4.50;99.90;;;;;;4868967;29;20452;-87
2021/12/03 02:13:33;;;;;;;22.97;15.80;;;4.50;99.90;;;;;;4915412;29;20479;-86
2021/12/03 02:16:01;;;;;;;25.23;17.23;;;4.50;99.90;;;;;;4900105;29;20468;-87
2021/12/03 02:18:30;;;;;;;23.00;15.60;;;4.40;99.90;;;;;;4857644;28;20453;-87
2021/12/03 02:21:02;;;;;;;25.67;17.30;;;4.40;99.90;;;;;;4840586;29;20919;-86
2021/12/03 02:23:29;;;;;;;26.13;16.50;;;4.30;99.90;;;;;;4833671;29;20505;-87
2021/12/03 02:25:57;;;;;;;25.30;16.03;;;4.20;99.90;;;;;;4852095;29;20617;-86
2021/12/03 02:28:27;;;;;;;25.47;17.40;;;4.40;99.90;;;;;;4840177;29;20469;-87
2021/12/03 02:30:55;;;;;;;25.33;16.00;;;4.30;99.90;;;;;;4835664;29;21704;-86
2021/12/03 02:33:22;;;;;;;18.67;14.10;;;4.20;99.90;;;;;;4839089;29;20861;-88
2021/12/03 02:35:49;;;;;;;25.43;16.83;;;4.20;99.90;;;;;;4856276;29;20503;-86
2021/12/03 02:38:19;;;;;;;20.97;15.70;;;4.40;99.90;;;;;;4877595;29;20464;-87
2021/12/03 02:40:48;;;;;;;18.57;14.53;;;4.50;99.90;;;;;;4899307;29;20530;-88
2021/12/03 02:43:15;;;;;;;18.67;14.50;;;4.40;99.90;;;;;;4885587;29;20497;-87
2021/12/03 02:45:42;;;;;;;24.50;16.37;;;4.60;99.90;;;;;;4843382;29;20751;-86
2021/12/03 02:48:09;;;;;;;22.80;13.80;;;4.60;99.90;;;;;;4848975;29;20683;-87
2021/12/03 02:50:39;;;;;;;22.07;14.20;;;4.50;99.90;;;;;;4820379;29;20477;-87
2021/12/03 02:53:08;;;;;;;24.63;14.30;;;4.60;99.90;;;;;;4825209;29;20498;-87
2021/12/03 02:55:35;;;;;;;19.43;14.03;;;4.50;99.90;;;;;;4865950;29;20655;-87
2021/12/03 02:58:12;;;;;;;20.50;14.67;;;4.70;99.90;;;;;;4843054;29;20462;-87
2021/12/03 03:00:47;;;;;;;20.80;15.03;;;4.70;99.90;;;;;;4826036;29;21311;-85
2021/12/03 03:03:16;;;;;;;23.90;14.77;;;4.70;99.90;;;;;;4809747;29;20493;-87
2021/12/03 03:05:56;;;;;;;20.47;14.93;;;4.80;99.90;;;;;;4850671;29;20505;-86
2021/12/03 03:08:24;;;;;;;20.03;14.13;;;4.60;99.90;;;;;;4884439;28;20458;-88
2021/12/03 03:10:53;;;;;;;19.03;13.10;;;4.80;99.90;;;;;;4892747;28;20462;-87
2021/12/03 03:13:20;;;;;;;19.23;13.67;;;4.90;99.90;;;;;;4894744;28;20474;-87
2021/12/03 03:15:47;;;;;;;19.97;13.73;;;4.90;99.90;;;;;;4867643;29;20476;-87
2021/12/03 03:18:21;;;;;;;20.03;13.80;;;4.80;99.90;;;;;;4822253;29;20464;-87
2021/12/03 03:20:50;;;;;;;21.20;13.63;;;4.80;99.90;;;;;;4837014;29;20467;-87
2021/12/03 03:23:18;;;;;;;19.53;13.20;;;4.80;99.90;;;;;;4832599;29;20534;-85
2021/12/03 03:25:46;;;;;;;21.40;14.17;;;4.90;99.90;;;;;;4871273;29;20480;-86
2021/12/03 03:28:14;;;;;;;17.73;13.13;;;4.90;99.90;;;;;;4818883;29;20467;-85
2021/12/03 03:30:44;;;;;;;17.50;12.23;;;4.80;99.90;;;;;;4815212;29;20978;-86
2021/12/03 03:33:12;;;;;;;18.47;12.97;;;4.70;99.90;;;;;;4821954;29;21593;-86
2021/12/03 03:35:39;;;;;;;17.30;12.53;;;4.70;99.90;;;;;;4864249;29;20466;-86
2021/12/03 03:38:07;;;;;;;20.67;13.20;;;4.80;99.90;;;;;;4868207;29;20470;-86
2021/12/03 03:40:35;;;;;;;18.47;13.53;;;5.00;99.90;;;;;;4878898;29;20476;-86
2021/12/03 03:43:04;;;;;;;19.60;13.33;;;5.00;99.90;;;;;;4876575;29;20586;-87
2021/12/03 03:45:32;;;;;;;17.47;12.70;;;5.00;99.90;;;;;;4856675;29;20500;-87
2021/12/03 03:47:59;;;;;;;18.17;12.00;;;4.90;99.90;;;;;;4834883;29;20474;-87
2021/12/03 03:50:27;;;;;;;17.50;12.23;;;5.00;99.90;;;;;;4806201;29;20470;-88
2021/12/03 03:52:56;;;;;;;15.40;10.93;;;5.00;99.90;;;;;;4802159;29;20491;-87
2021/12/03 03:55:24;;;;;;;20.23;13.00;;;5.00;99.90;;;;;;4835491;29;20467;-86
2021/12/03 03:57:54;;;;;;;17.50;11.27;;;5.00;99.90;;;;;;4836960;29;21516;-87
2021/12/03 04:00:34;;;;;;;16.30;12.30;;;5.00;99.90;;;;;;4826743;29;21611;-87
2021/12/03 04:03:03;;;;;;;18.53;12.40;;;5.10;99.90;;;;;;4831961;29;21492;-87
2021/12/03 04:05:31;;;;;;;14.93;12.17;;;5.10;99.90;;;;;;4808616;29;20478;-86
2021/12/03 04:07:58;;;;;;;16.13;12.20;;;4.90;99.90;;;;;;4853719;29;20460;-87
2021/12/03 04:10:25;;;;;;;17.17;13.10;;;4.80;99.90;;;;;;4866209;29;20476;-86
2021/12/03 04:12:52;;;;;;;18.40;10.30;;;4.60;99.90;;;;;;4869483;29;20493;-86
2021/12/03 04:15:19;;;;;;;15.63;10.67;;;4.70;99.90;;;;;;4876484;29;20468;-87
2021/12/03 04:17:47;;;;;;;11.83;9.80;;;4.80;99.90;;;;;;4854800;29;20577;-86
2021/12/03 04:20:16;;;;;;;12.00;9.67;;;4.60;99.90;;;;;;4847731;29;20827;-86
2021/12/03 04:22:43;;;;;;;13.00;9.90;;;4.90;99.90;;;;;;4832718;29;21021;-87
2021/12/03 04:25:13;;;;;;;14.50;9.00;;;4.80;99.90;;;;;;4824855;29;20592;-86
2021/12/03 04:27:40;;;;;;;18.00;9.60;;;4.80;99.90;;;;;;4829777;29;20475;-86
2021/12/03 04:30:11;;;;;;;12.03;8.37;;;4.80;99.90;;;;;;4815472;29;20465;-86
2021/12/03 04:32:38;;;;;;;14.37;8.10;;;4.70;99.90;;;;;;4811059;29;20916;-86
2021/12/03 04:35:06;;;;;;;11.73;8.20;;;4.80;99.90;;;;;;4823975;29;20461;-86
2021/12/03 04:37:33;;;;;;;13.03;7.70;;;4.80;99.90;;;;;;4826422;29;20472;-87
2021/12/03 04:40:00;;;;;;;10.20;7.33;;;4.80;99.90;;;;;;4842982;29;21664;-87
2021/12/03 04:42:27;;;;;;;8.70;7.33;;;4.70;99.90;;;;;;4854833;29;20493;-86
2021/12/03 04:44:54;;;;;;;13.60;8.27;;;4.80;99.90;;;;;;4865901;29;20466;-87
2021/12/03 04:47:21;;;;;;;13.20;8.33;;;4.80;99.90;;;;;;4862691;29;20464;-86
2021/12/03 04:49:47;;;;;;;12.80;8.40;;;4.90;99.90;;;;;;4875292;29;20477;-84
2021/12/03 04:52:14;;;;;;;11.17;7.73;;;4.80;99.90;;;;;;4865296;29;21102;-86
2021/12/03 04:54:44;;;;;;;11.73;7.53;;;5.00;99.90;;;;;;4875927;29;20525;-85
2021/12/03 04:57:11;;;;;;;9.70;6.97;;;4.90;99.90;;;;;;4876456;29;20466;-84
2021/12/03 04:59:38;;;;;;;9.50;7.10;;;5.00;99.90;;;;;;4857881;29;21085;-85
2021/12/03 05:02:05;;;;;;;10.03;7.40;;;5.00;99.90;;;;;;4821005;29;21640;-87
2021/12/03 05:04:37;;;;;;;10.20;6.60;;;5.00;99.90;;;;;;4815876;29;20489;-86
2021/12/03 05:09:37;;;;;;;8.77;7.00;;;5.00;99.90;;;;;;4832850;29;21921;-87
2021/12/03 05:12:05;;;;;;;10.40;7.00;;;5.00;99.90;;;;;;4862571;29;20498;-87
2021/12/03 05:14:32;;;;;;;10.77;6.87;;;5.00;99.90;;;;;;4873539;29;20493;-87
2021/12/03 05:16:58;;;;;;;8.30;5.63;;;5.00;99.90;;;;;;4864193;29;20485;-87
2021/12/03 05:19:25;;;;;;;8.03;6.37;;;4.70;99.90;;;;;;4867714;29;21578;-88
2021/12/03 05:21:52;;;;;;;9.23;5.90;;;4.60;99.90;;;;;;4812703;29;20482;-88
2021/12/03 05:24:19;;;;;;;9.70;5.53;;;4.50;99.90;;;;;;4833220;29;20481;-86
2021/12/03 05:26:46;;;;;;;7.20;5.63;;;4.50;99.90;;;;;;4869484;29;20470;-86
2021/12/03 05:29:14;;;;;;;8.33;6.13;;;4.50;99.90;;;;;;4877507;29;20460;-87
2021/12/03 05:31:41;;;;;;;10.13;6.10;;;4.50;99.90;;;;;;4892421;29;20477;-86
2021/12/03 05:34:25;;;;;;;11.73;6.10;;;4.50;99.90;;;;;;4881230;29;20485;-88
2021/12/03 05:36:52;;;;;;;6.97;5.20;;;4.60;99.90;;;;;;4872746;29;20974;-86
2021/12/03 05:39:19;;;;;;;9.43;5.80;;;5.10;99.90;;;;;;4835033;29;21034;-87
2021/12/03 05:41:46;;;;;;;7.57;5.90;;;5.40;99.90;;;;;;4812808;29;20474;-86
2021/12/03 05:44:13;;;;;;;12.43;6.50;;;5.30;99.90;;;;;;4864061;29;21097;-87
2021/12/03 05:46:40;;;;;;;11.40;5.60;;;5.30;99.90;;;;;;4808332;29;22627;-86
2021/12/03 05:49:07;;;;;;;12.73;6.90;;;5.30;99.90;;;;;;4861103;29;20471;-86
2021/12/03 05:51:35;;;;;;;10.47;6.60;;;5.10;99.90;;;;;;4878865;29;21272;-86
2021/12/03 05:54:02;;;;;;;10.97;5.97;;;5.20;99.90;;;;;;4875705;29;20890;-86
2021/12/03 05:56:37;;;;;;;15.00;6.43;;;5.40;99.90;;;;;;4878812;29;20936;-87
2021/12/03 05:59:04;;;;;;;12.40;6.47;;;5.30;99.90;;;;;;4865895;29;20556;-85
2021/12/03 06:01:30;;;;;;;7.53;6.70;;;5.30;99.90;;;;;;4877555;29;20468;-87
2021/12/03 06:03:57;;;;;;;10.30;6.13;;;5.40;99.90;;;;;;4859176;29;20509;-86
2021/12/03 06:06:24;;;;;;;9.07;5.80;;;5.40;99.90;;;;;;4879525;29;20475;-87
2021/12/03 06:08:51;;;;;;;7.87;5.90;;;5.50;99.90;;;;;;4872179;29;20467;-87
2021/12/03 06:11:18;;;;;;;8.73;6.10;;;5.50;99.90;;;;;;4886354;29;20468;-86
2021/12/03 06:13:45;;;;;;;10.77;6.73;;;5.50;99.90;;;;;;4870291;29;21664;-85
2021/12/03 06:16:13;;;;;;;9.60;6.00;;;5.60;99.90;;;;;;4871269;29;20533;-88
2021/12/03 06:18:46;;;;;;;6.10;5.10;;;5.50;99.90;;;;;;4875789;29;21931;-88
2021/12/03 06:21:14;;;;;;;7.37;4.80;;;5.40;99.90;;;;;;4876256;29;20463;-87
2021/12/03 06:23:42;;;;;;;6.57;4.83;;;5.30;99.90;;;;;;4870820;29;20518;-87
2021/12/03 06:26:11;;;;;;;8.53;5.63;;;5.50;99.90;;;;;;4891285;29;20470;-85
2021/12/03 06:28:39;;;;;;;15.33;5.77;;;5.50;99.90;;;;;;4890929;29;20584;-88
2021/12/03 06:31:12;;;;;;;9.30;4.93;;;5.50;99.90;;;;;;4879160;29;21017;-86
2021/12/03 06:39:13;;;;;;;8.37;4.87;;;5.40;99.90;;;;;;4965799;23;20519;-84
2021/12/03 06:44:17;;;;;;;10.83;6.20;;;5.30;99.90;;;;;;4987454;23;20501;-87
2021/12/03 06:46:55;;;;;;;6.90;5.13;;;5.30;99.90;;;;;;4939950;28;20481;-85
2021/12/03 06:49:40;;;;;;;8.37;4.80;;;5.40;99.90;;;;;;4932313;28;20859;-87
2021/12/03 06:52:16;;;;;;;7.43;5.87;;;5.40;99.90;;;;;;4929166;28;20481;-87
2021/12/03 06:58:23;;;;;;;4.93;4.53;;;5.40;99.90;;;;;;4935102;28;20665;-85
2021/12/03 07:04:33;;;;;;;9.70;5.20;;;5.40;99.90;;;;;;4906322;29;20475;-85
2021/12/03 07:07:00;;;;;;;6.97;4.87;;;5.40;99.90;;;;;;4890874;29;20507;-86
2021/12/03 07:09:41;;;;;;;9.10;4.57;;;5.40;99.90;;;;;;4890874;29;22231;-87
2021/12/03 07:12:21;;;;;;;6.63;5.03;;;5.40;99.90;;;;;;4886239;29;20522;-85
2021/12/03 07:14:50;;;;;;;7.87;5.10;;;5.40;99.90;;;;;;4880310;29;20614;-86
2021/12/03 07:17:25;;;;;;;9.80;5.13;;;5.30;99.90;;;;;;4895683;29;20473;-86
2021/12/03 07:19:56;;;;;;;7.20;4.70;;;5.40;99.90;;;;;;4872374;29;20503;-87
2021/12/03 07:22:39;;;;;;;9.27;4.63;;;5.40;99.90;;;;;;5012719;23;20496;-86
2021/12/03 07:25:07;;;;;;;8.60;5.50;;;5.30;99.90;;;;;;4929881;28;20476;-86
2021/12/03 07:27:40;;;;;;;9.30;5.60;;;5.40;99.90;;;;;;4924787;28;20545;-87
2021/12/03 07:30:10;;;;;;;7.70;4.80;;;5.40;99.90;;;;;;4925943;28;20482;-87
2021/12/03 07:32:45;;;;;;;10.63;5.40;;;5.50;99.90;;;;;;4927173;28;20511;-87
2021/12/03 07:35:57;;;;;;;12.90;6.00;;;5.40;99.90;;;;;;4866025;29;20486;-85
2021/12/03 07:38:26;;;;;;;7.97;5.13;;;5.40;99.90;;;;;;4841834;29;20504;-87
2021/12/03 07:41:02;;;;;;;9.10;5.20;;;5.40;99.90;;;;;;4861168;28;21794;-86
2021/12/03 07:43:31;;;;;;;10.30;6.43;;;5.40;99.90;;;;;;4892140;29;20486;-85
2021/12/03 07:46:04;;;;;;;9.70;5.37;;;5.40;99.90;;;;;;4915055;28;20480;-85
2021/12/03 07:48:47;;;;;;;8.97;5.30;;;5.40;99.90;;;;;;4915001;29;20543;-85
2021/12/03 07:51:17;;;;;;;8.40;5.80;;;5.40;99.90;;;;;;4911413;29;20527;-87
2021/12/03 07:53:53;;;;;;;11.93;5.30;;;5.50;99.90;;;;;;4963412;23;20495;-86
2021/12/03 07:56:49;;;;;;;9.23;5.10;;;5.50;99.90;;;;;;4936103;28;20457;-85
2021/12/03 07:59:45;;;;;;;9.00;4.73;;;5.50;99.90;;;;;;4932714;28;20481;-85
2021/12/03 08:02:23;;;;;;;7.50;4.93;;;5.60;99.90;;;;;;4928865;28;20583;-86
2021/12/03 08:05:09;;;;;;;11.53;5.20;;;5.60;99.90;;;;;;4923611;29;20473;-88
2021/12/03 08:07:46;;;;;;;6.03;5.13;;;5.50;99.90;;;;;;4928932;29;20454;-86
2021/12/03 08:10:19;;;;;;;8.37;4.37;;;5.40;99.90;;;;;;4918033;29;20515;-88
2021/12/03 08:12:55;;;;;;;7.40;3.70;;;5.40;99.90;;;;;;4918475;29;20483;-87
2021/12/03 08:15:30;;;;;;;7.47;3.63;;;5.30;99.90;;;;;;4913575;29;20965;-86
2021/12/03 08:17:57;;;;;;;6.73;3.57;;;5.40;99.90;;;;;;4916848;28;20901;-88
2021/12/03 08:20:23;;;;;;;7.33;4.20;;;5.40;99.90;;;;;;4919386;29;20467;-88
2021/12/03 08:23:18;;;;;;;6.47;4.10;;;5.40;99.90;;;;;;4912259;29;20608;-87
2021/12/03 08:25:56;;;;;;;5.70;3.30;;;5.70;99.90;;;;;;4911158;29;20521;-86
2021/12/03 08:28:32;;;;;;;7.97;4.90;;;5.60;99.90;;;;;;4913625;29;20548;-86
2021/12/03 08:31:03;;;;;;;4.77;3.97;;;5.70;99.90;;;;;;4911819;29;20476;-86
2021/12/03 08:33:30;;;;;;;8.37;4.23;;;5.80;99.90;;;;;;4915434;29;21859;-86
2021/12/03 08:35:57;;;;;;;9.33;3.87;;;5.70;99.90;;;;;;4910693;29;20480;-84
2021/12/03 08:38:31;;;;;;;4.83;3.43;;;5.70;99.90;;;;;;4910640;29;20489;-86
2021/12/03 08:41:18;;;;;;;5.13;3.60;;;5.60;99.90;;;;;;4914005;29;20463;-84
2021/12/03 08:43:51;;;;;;;6.63;3.83;;;5.60;99.90;;;;;;4918092;29;20475;-86
2021/12/03 08:46:24;;;;;;;6.93;3.90;;;5.70;99.90;;;;;;4917597;29;20481;-87
2021/12/03 08:48:51;;;;;;;5.23;3.30;;;5.60;99.90;;;;;;4915070;29;20451;-85
2021/12/03 08:56:56;;;;;;;6.93;3.50;;;5.70;99.90;;;;;;4914650;29;20475;-87
2021/12/03 08:59:36;;;;;;;6.27;3.57;;;5.80;99.90;;;;;;4912293;29;20537;-88
2021/12/03 09:02:34;;;;;;;5.53;2.40;;;5.80;99.90;;;;;;4918277;28;20481;-87
2021/12/03 09:05:18;;;;;;;7.47;3.10;;;6.00;99.80;;;;;;4939644;28;20446;-85
2021/12/03 09:07:50;;;;;;;4.37;2.93;;;6.00;99.50;;;;;;4931141;28;20459;-88
2021/12/03 09:10:37;;;;;;;4.87;2.60;;;5.70;99.30;;;;;;4925771;28;21127;-86
2021/12/03 09:13:04;;;;;;;3.70;2.30;;;5.70;99.60;;;;;;4922905;28;20509;-87
2021/12/03 09:15:42;;;;;;;6.10;2.50;;;5.90;99.30;;;;;;4921305;29;20495;-88
2021/12/03 09:23:48;;;;;;;5.27;2.13;;;6.00;98.50;;;;;;4915137;29;21428;-85
2021/12/03 09:26:17;;;;;;;4.67;2.10;;;6.00;98.40;;;;;;4915089;29;20462;-88
2021/12/03 09:29:01;;;;;;;4.43;2.53;;;6.10;98.30;;;;;;4913146;29;20488;-87
2021/12/03 09:34:36;;;;;;;7.30;3.00;;;6.20;97.50;;;;;;4869265;29;20564;-88
2021/12/03 09:37:03;;;;;;;6.87;1.97;;;6.30;97.80;;;;;;4876459;29;20471;-88
2021/12/03 09:39:45;;;;;;;9.57;2.60;;;6.20;97.20;;;;;;4882124;29;20539;-86
2021/12/03 09:42:14;;;;;;;4.70;2.37;;;6.20;96.90;;;;;;4881992;29;21172;-87
2021/12/03 09:44:50;;;;;;;6.20;2.40;;;6.30;97.10;;;;;;4885321;29;20483;-88
2021/12/03 09:47:36;;;;;;;2.90;1.70;;;6.30;96.50;;;;;;4868677;29;20483;-86
2021/12/03 09:50:13;;;;;;;9.60;2.73;;;6.20;96.50;;;;;;4854031;29;20460;-86
2021/12/03 09:55:55;;;;;;;15.23;4.43;;;6.30;96.40;;;;;;4862368;29;20962;-86
2021/12/03 09:59:07;;;;;;;5.03;2.70;;;6.40;96.40;;;;;;4875223;29;20452;-87
2021/12/03 10:01:33;;;;;;;6.20;2.50;;;6.40;96.30;;;;;;4858046;29;20605;-85
2021/12/03 10:04:26;;;;;;;9.60;3.97;;;6.40;96.50;;;;;;4860499;29;20623;-88
2021/12/03 10:15:34;;;;;;;8.67;2.70;;;6.40;96.10;;;;;;4859038;29;20595;-86
2021/12/03 10:18:17;;;;;;;8.90;2.27;;;6.20;96.00;;;;;;4852498;29;20506;-87
2021/12/03 10:21:02;;;;;;;4.83;2.33;;;6.30;96.30;;;;;;4863390;29;20488;-86
2021/12/03 10:27:09;;;;;;;6.70;2.47;;;6.20;96.30;;;;;;4864800;29;20451;-87
2021/12/03 10:29:43;;;;;;;3.77;2.20;;;6.30;96.20;;;;;;4862514;29;20465;-85
2021/12/03 10:35:28;;;;;;;7.93;3.23;;;6.20;96.60;;;;;;4855365;29;20497;-87
2021/12/03 10:46:43;;;;;;;5.90;3.10;;;6.40;96.20;;;;;;4848922;29;20482;-84
2021/12/03 11:11:15;;;;;;;3.43;2.23;;;6.50;95.40;;;;;;4912207;29;20451;-87
2021/12/03 11:19:29;;;;;;;6.23;2.60;;;6.50;95.80;;;;;;4881622;29;20463;-87
2021/12/03 11:48:24;;;;;;;8.20;2.30;;;6.30;95.90;;;;;;4907549;29;20472;-87
2021/12/03 11:51:13;;;;;;;3.67;2.40;;;6.60;96.20;;;;;;4914370;29;20507;-84
2021/12/03 12:25:04;;;;;;;3.63;2.40;;;7.00;94.50;;;;;;5465112;23;20501;-84
2021/12/03 12:42:58;;;;;;;3.73;2.20;;;6.70;95.00;;;;;;4899412;29;20488;-86
2021/12/03 13:02:51;;;;;;;5.30;2.40;;;6.90;95.60;;;;;;4921983;29;21887;-87
2021/12/03 13:08:14;;;;;;;4.13;2.20;;;6.90;95.30;;;;;;4927234;29;20468;-86
2021/12/03 13:19:13;;;;;;;1.87;1.77;;;6.90;95.70;;;;;;4933998;29;20590;-85
2021/12/03 13:37:33;;;;;;;4.10;1.93;;;6.90;95.50;;;;;;4925868;28;20559;-87
2021/12/03 13:56:31;;;;;;;2.90;2.40;;;6.70;95.30;;;;;;4924036;29;20461;-87
2021/12/03 13:57:16;;;;;;;1.90;1.80;;;6.70;95.60;;;;;;4908382;29;20489;-88
2021/12/03 14:07:39;;;;;;;3.87;1.73;;;6.90;95.30;;;;;;4905189;29;20527;-86
2021/12/03 14:34:10;;;;;;;3.57;2.70;;;6.70;95.50;;;;;;4900562;29;21304;-87
2021/12/03 14:36:07;;;;;;;2.60;2.20;;;6.70;95.60;;;;;;4897317;29;20481;-88
2021/12/03 14:40:56;;;;;;;2.20;1.73;;;6.70;95.50;;;;;;4902826;29;20472;-85
2021/12/03 14:43:36;;;;;;;2.37;1.93;;;6.70;95.90;;;;;;4890610;29;20494;-89
2021/12/03 14:46:23;;;;;;;1.97;1.87;;;6.60;96.00;;;;;;4889267;29;20458;-84
2021/12/03 14:54:47;;;;;;;2.80;1.90;;;6.70;95.60;;;;;;4903887;29;20534;-86
2021/12/03 14:57:44;;;;;;;4.73;2.17;;;6.70;95.70;;;;;;4883496;29;20527;-87
2021/12/03 15:08:16;;;;;;;3.90;2.10;;;6.70;95.40;;;;;;4896102;29;20464;-86
2021/12/03 15:14:21;;;;;;;1.93;1.67;;;6.70;95.40;;;;;;4886170;29;20491;-89
2021/12/03 15:20:02;;;;;;;3.57;2.40;;;6.80;95.30;;;;;;4896343;29;21735;-87
2021/12/03 15:22:15;;;;;;;1.63;1.43;;;6.90;95.30;;;;;;4902522;29;20449;-86
2021/12/03 15:25:07;;;;;;;3.20;1.90;;;6.80;95.50;;;;;;4887687;29;20472;-88
2021/12/03 16:08:31;;;;;;;5.10;2.37;;;5.90;99.90;;;;;;4907214;29;20525;-86
2021/12/03 16:13:51;;;;;;;4.63;2.37;;;5.80;99.90;;;;;;4910251;29;20510;-85
2021/12/03 16:43:56;;;;;;;3.90;2.90;;;6.30;99.90;;;;;;4917725;29;20507;-84
2021/12/03 16:51:53;;;;;;;10.73;2.87;;;6.60;99.90;;;;;;4891690;29;22825;-87
2021/12/03 16:54:46;;;;;;;4.47;2.47;;;6.60;99.90;;;;;;4893167;29;20439;-87
2021/12/03 16:57:16;;;;;;;2.97;2.63;;;6.50;99.90;;;;;;4884034;29;20506;-85
2021/12/03 16:59:45;;;;;;;4.47;2.50;;;6.60;99.90;;;;;;4911359;29;20476;-86
2021/12/03 17:02:26;;;;;;;2.80;2.53;;;6.60;99.90;;;;;;4900056;29;20475;-88
2021/12/03 17:05:23;;;;;;;3.23;2.90;;;6.60;99.90;;;;;;4905037;29;20474;-91
2021/12/03 17:08:25;;;;;;;3.13;2.80;;;6.60;99.90;;;;;;4901507;29;20456;-88
2021/12/03 17:30:06;;;;;;;3.57;2.60;;;6.60;99.90;;;;;;4906902;29;20474;-85
2021/12/03 17:49:13;;;;;;;2.87;2.20;;;6.60;99.90;;;;;;4915917;28;20482;-88
2021/12/03 17:52:10;;;;;;;4.70;3.10;;;6.60;99.90;;;;;;4899487;29;20457;-87
2021/12/03 17:55:25;;;;;;;3.10;2.50;;;6.60;99.90;;;;;;4911887;29;20465;-87
2021/12/03 17:58:31;;;;;;;2.83;2.53;;;6.60;99.90;;;;;;4893888;29;20510;-86
2021/12/03 18:04:40;;;;;;;5.50;2.73;;;6.50;99.90;;;;;;4906254;29;21214;-86
2021/12/03 18:11:21;;;;;;;5.00;3.60;;;6.70;99.90;;;;;;4901029;29;20467;-87
2021/12/03 18:55:09;;;;;;;3.17;2.50;;;6.50;99.90;;;;;;4911714;29;20513;-86
2021/12/03 18:58:00;;;;;;;2.93;2.20;;;6.60;99.90;;;;;;4922058;29;20561;-85
2021/12/03 19:00:31;;;;;;;2.73;2.40;;;6.60;99.90;;;;;;4940570;29;20473;-87
2021/12/03 19:03:04;;;;;;;4.50;2.43;;;6.70;99.90;;;;;;4920881;29;20481;-89
2021/12/03 19:06:02;;;;;;;2.83;2.57;;;6.60;99.90;;;;;;4918244;29;20459;-85
2021/12/03 19:08:46;;;;;;;2.17;1.97;;;6.60;99.90;;;;;;4916406;29;20471;-87
2021/12/03 19:14:00;;;;;;;4.07;2.27;;;6.60;99.90;;;;;;4930629;29;20506;-87
2021/12/03 19:16:44;;;;;;;2.10;1.80;;;6.70;99.90;;;;;;4920420;29;20484;-85
2021/12/03 19:19:25;;;;;;;2.20;1.63;;;6.60;99.90;;;;;;4927362;29;20479;-86
2021/12/03 19:22:36;;;;;;;3.17;1.97;;;6.70;99.90;;;;;;4932404;28;20465;-86
2021/12/03 19:25:17;;;;;;;3.00;2.23;;;6.80;99.90;;;;;;4930769;29;20457;-84
2021/12/03 19:28:05;;;;;;;2.60;2.10;;;6.80;99.90;;;;;;4918944;29;20462;-86
2021/12/03 19:30:48;;;;;;;2.47;1.87;;;6.80;99.90;;;;;;4933686;29;20459;-86
2021/12/03 19:33:21;;;;;;;2.10;1.90;;;6.80;99.90;;;;;;4920578;29;20533;-86
2021/12/03 19:36:30;;;;;;;2.47;2.27;;;6.90;99.90;;;;;;4910532;29;20434;-87
2021/12/03 19:39:29;;;;;;;5.73;2.57;;;6.80;99.90;;;;;;4910038;29;20453;-85
2021/12/03 19:42:22;;;;;;;2.93;2.10;;;6.90;99.90;;;;;;4930687;29;20462;-87
2021/12/03 19:45:17;;;;;;;2.50;2.07;;;6.90;99.90;;;;;;4931930;29;20439;-87
2021/12/03 19:48:04;;;;;;;1.90;1.67;;;6.80;99.90;;;;;;4919524;29;20561;-86
2021/12/03 19:50:54;;;;;;;1.00;1.00;;;6.80;99.90;;;;;;4925889;29;20467;-86
2021/12/03 19:54:27;;;;;;;;;;;;;;;;;;;;;
2021/12/03 19:57:20;;;;;;;1.50;1.40;;;6.70;99.90;;;;;;5073590;23;20523;-89
2021/12/03 20:00:03;;;;;;;1.90;1.70;;;6.70;99.90;;;;;;4959300;28;20470;-88
2021/12/03 20:02:59;;;;;;;1.70;1.40;;;6.70;99.90;;;;;;4938564;28;20484;-86
2021/12/03 20:05:54;;;;;;;1.70;1.50;;;6.80;99.90;;;;;;4937467;29;20474;-86
2021/12/03 20:08:54;;;;;;;2.90;1.53;;;6.80;99.90;;;;;;4936915;29;20525;-89
2021/12/03 20:11:48;;;;;;;1.60;1.50;;;6.90;99.90;;;;;;4947087;28;20463;-87
2021/12/03 20:14:26;;;;;;;1.50;1.40;;;6.90;99.90;;;;;;4952290;28;20469;-83
2021/12/03 20:17:37;;;;;;;1.13;1.03;;;6.90;99.80;;;;;;4924849;29;20483;-89
2021/12/03 20:20:33;;;;;;;1.13;1.03;;;7.00;99.40;;;;;;4935101;29;20472;-88
2021/12/03 20:23:11;;;;;;;1.50;1.40;;;7.00;99.30;;;;;;4941880;28;20477;-89
2021/12/03 20:26:10;;;;;;;1.20;1.10;;;7.00;99.20;;;;;;4949976;28;20470;-90
2021/12/03 20:28:43;;;;;;;1.30;1.20;;;7.10;99.10;;;;;;5017688;23;20490;-89
2021/12/03 20:39:32;;;;;;;1.73;1.57;;;6.90;99.70;;;;;;4953803;28;20429;-86
2021/12/03 20:47:57;;;;;;;1.03;0.97;;;7.10;99.20;;;;;;4946977;29;20475;-87
2021/12/03 20:53:34;;;;;;;1.70;1.60;;;7.10;99.10;;;;;;4947345;28;20475;-86
2021/12/03 21:08:56;;;;;;;2.80;2.00;;;6.80;99.90;;;;;;4942335;29;20457;-86
2021/12/03 21:11:45;;;;;;;1.70;1.60;;;7.00;99.70;;;;;;4933087;28;20549;-85
2021/12/03 21:14:18;;;;;;;2.03;1.60;;;6.90;99.90;;;;;;4946894;29;20462;-88
2021/12/03 21:23:11;;;;;;;1.77;1.30;;;7.00;99.80;;;;;;4935719;29;20452;-85